.
WxDataArchive / Data Records for 2016-04-09
2016-04-08 April 2016 2016-04-10

Data Records for Saturday, 09 April 2016

Time	Temp	Chill	HIndex	Humid	Dewpt	 Wind 	HiWind	WindDir	Rain 	Barom
-----	----	-----	------	-----	-----	------	------	-------	-----	-----
00:00	31.9	28.0	31.9	68	22.6	4	9	292	0.00	29.792 
00:05	31.8	31.8	31.8	69	22.8	3	9	270	0.00	29.792 
00:10	31.6	31.6	31.6	70	23.0	3	9	270	0.00	29.792 
00:15	31.5	31.5	31.5	70	22.9	2	7	270	0.00	29.791 
00:20	31.3	27.3	31.3	71	23.0	4	9	315	0.00	29.791 
00:25	31.3	31.3	31.3	71	23.0	3	9	270	0.00	29.791 
00:30	31.2	31.2	31.2	72	23.2	3	6	270	0.00	29.787 
00:35	31.0	31.0	31.0	73	23.4	2	4	292	0.00	29.787 
00:40	31.0	31.0	31.0	73	23.4	3	6	270	0.01	29.787 
00:45	30.9	30.9	30.9	74	23.6	2	6	270	0.00	29.787 
00:50	30.7	30.7	30.7	74	23.4	2	9	315	0.00	29.787 
00:55	30.7	30.7	30.7	74	23.4	2	6	292	0.00	29.787 
01:00	30.9	30.9	30.9	74	23.6	3	7	292	0.00	29.784 
01:05	30.9	30.9	30.9	74	23.6	3	5	270	0.00	29.784 
01:10	30.9	30.9	30.9	75	23.9	2	6	270	0.00	29.784 
01:15	30.7	30.7	30.7	77	24.4	3	7	292	0.00	29.784 
01:20	30.4	26.2	30.4	79	24.7	4	10	292	0.00	29.784 
01:25	30.3	30.3	30.3	80	24.9	3	7	270	0.00	29.784 
01:30	30.1	30.1	30.1	82	25.3	3	6	292	0.00	29.784 
01:35	30.0	30.0	30.0	83	25.5	3	6	270	0.00	29.784 
01:40	30.0	30.0	30.0	83	25.5	3	5	270	0.00	29.784 
01:45	30.1	30.1	30.1	84	25.9	3	6	270	0.00	29.782 
01:50	30.1	30.1	30.1	84	25.9	3	5	270	0.00	29.782 
01:55	30.0	30.0	30.0	85	26.0	3	6	270	0.00	29.782 
02:00	30.0	30.0	30.0	86	26.3	3	6	270	0.00	29.782 
02:05	30.0	30.0	30.0	86	26.3	2	5	292	0.00	29.782 
02:10	30.0	30.0	30.0	87	26.6	2	5	292	0.00	29.782 
02:15	29.8	29.8	29.8	87	26.4	3	5	292	0.00	29.782 
02:20	29.8	29.8	29.8	88	26.7	3	9	292	0.00	29.782 
02:25	29.7	24.4	29.7	88	26.6	5	14	292	0.00	29.782 
02:30	29.4	25.1	29.4	88	26.3	4	11	292	0.00	29.789 
02:35	29.3	25.0	29.3	88	26.2	4	14	315	0.00	29.789 
02:40	29.0	29.0	29.0	89	26.2	3	7	315	0.00	29.789 
02:45	28.8	24.4	28.8	89	26.0	4	10	292	0.00	29.792 
02:50	28.5	24.0	28.5	89	25.7	4	13	292	0.00	29.792 
02:55	28.2	22.6	28.2	89	25.4	5	11	315	0.00	29.792 
03:00	28.1	22.5	28.1	89	25.3	5	14	292	0.00	29.800 
03:05	27.9	23.3	27.9	89	25.1	4	12	292	0.00	29.800 
03:10	27.8	22.1	27.8	89	25.0	5	14	292	0.00	29.800 
03:15	27.8	22.1	27.8	89	25.0	5	13	292	0.00	29.817 
03:20	27.8	22.1	27.8	90	25.3	5	11	292	0.00	29.817 
03:25	27.8	23.2	27.8	90	25.3	4	9	292	0.00	29.817 
03:30	27.8	27.8	27.8	90	25.3	3	11	292	0.00	29.837 
03:35	27.8	27.8	27.8	90	25.3	2	6	315	0.00	29.837 
03:40	27.8	27.8	27.8	90	25.3	3	10	292	0.00	29.837 
03:45	27.8	27.8	27.8	90	25.3	3	11	338	0.00	29.851 
03:50	27.2	22.5	27.2	89	24.4	4	15	338	0.00	29.851 
03:55	26.6	26.6	26.6	88	23.5	3	10	0	0.00	29.851 
04:00	26.4	26.4	26.4	87	23.1	2	7	22	0.00	29.870 
04:05	26.4	26.4	26.4	87	23.1	2	6	338	0.00	29.870 
04:10	26.4	26.4	26.4	87	23.1	2	9	315	0.00	29.870 
04:15	26.4	26.4	26.4	86	22.8	2	7	315	0.00	29.884 
04:20	26.4	26.4	26.4	86	22.8	2	6	292	0.00	29.884 
04:25	26.4	26.4	26.4	86	22.8	2	6	292	0.00	29.884 
04:30	26.4	26.4	26.4	86	22.8	2	7	292	0.00	29.897 
04:35	26.4	26.4	26.4	87	23.1	1	4	292	0.00	29.897 
04:40	26.4	26.4	26.4	87	23.1	1	4	292	0.00	29.897 
04:45	26.6	26.6	26.6	88	23.5	2	7	315	0.00	29.905 
04:50	26.4	26.4	26.4	88	23.3	3	8	292	0.00	29.905 
04:55	26.4	26.4	26.4	91	24.1	3	9	292	0.00	29.905 
05:00	26.4	26.4	26.4	87	23.1	2	7	0	0.00	29.918 
05:05	26.3	26.3	26.3	87	23.0	2	7	338	0.00	29.918 
05:10	26.3	26.3	26.3	86	22.7	3	7	338	0.00	29.918 
05:15	26.3	26.3	26.3	86	22.7	1	5	270	0.00	29.931 
05:20	26.4	26.4	26.4	85	22.5	2	7	315	0.00	29.931 
05:25	26.4	26.4	26.4	85	22.5	2	6	292	0.00	29.931 
05:30	26.4	26.4	26.4	84	22.2	2	6	292	0.00	29.945 
05:35	26.4	26.4	26.4	84	22.2	2	7	292	0.00	29.945 
05:40	26.4	26.4	26.4	83	22.0	1	4	292	0.00	29.945 
05:45	26.4	26.4	26.4	83	22.0	2	7	292	0.00	29.957 
05:50	26.4	26.4	26.4	83	22.0	1	5	315	0.00	29.957 
05:55	26.4	26.4	26.4	82	21.7	2	5	45	0.00	29.957 
06:00	26.4	26.4	26.4	82	21.7	1	8	338	0.00	29.968 
06:05	26.4	26.4	26.4	81	21.4	1	4	292	0.00	29.968 
06:10	26.4	26.4	26.4	81	21.4	2	6	338	0.00	29.968 
06:15	26.4	26.4	26.4	81	21.4	1	5	270	0.00	29.977 
06:20	26.4	26.4	26.4	81	21.4	1	5	292	0.00	29.977 
06:25	26.4	26.4	26.4	81	21.4	1	4	292	0.00	29.977 
06:30	26.3	26.3	26.3	81	21.3	1	9	292	0.00	29.991 
06:35	26.3	26.3	26.3	81	21.3	1	5	292	0.00	29.991 
06:40	26.3	26.3	26.3	81	21.3	1	3	292	0.00	29.991 
06:45	26.3	26.3	26.3	81	21.3	0	3	292	0.00	29.999 
06:50	26.3	26.3	26.3	81	21.3	1	3	315	0.00	29.999 
06:55	26.3	26.3	26.3	81	21.3	2	5	292	0.00	29.999 
07:00	26.3	26.3	26.3	81	21.3	2	7	292	0.00	30.009 
07:05	26.1	26.1	26.1	81	21.1	2	7	292	0.00	30.009 
07:10	26.1	26.1	26.1	80	20.8	2	6	292	0.00	30.009 
07:15	26.1	26.1	26.1	81	21.1	2	5	292	0.00	30.022 
07:20	26.1	26.1	26.1	80	20.8	1	6	292	0.00	30.022 
07:25	26.1	26.1	26.1	80	20.8	3	6	292	0.00	30.022 
07:30	26.1	26.1	26.1	80	20.8	2	6	292	0.00	30.034 
07:35	26.1	26.1	26.1	79	20.5	1	5	292	0.00	30.034 
07:40	26.1	26.1	26.1	79	20.5	2	11	292	0.00	30.034 
07:45	26.1	26.1	26.1	78	20.2	1	4	315	0.00	30.042 
07:50	26.1	26.1	26.1	78	20.2	1	5	338	0.00	30.042 
07:55	26.0	26.0	26.0	78	20.1	1	5	338	0.00	30.042 
08:00	26.0	26.0	26.0	77	19.8	2	7	292	0.00	30.055 
08:05	25.8	25.8	25.8	77	19.6	2	5	292	0.00	30.055 
08:10	25.7	25.7	25.7	77	19.5	1	5	338	0.00	30.055 
08:15	25.6	25.6	25.6	76	19.1	1	7	315	0.00	30.068 
08:20	25.6	25.6	25.6	76	19.1	2	6	292	0.00	30.068 
08:25	25.6	25.6	25.6	75	18.8	2	7	292	0.00	30.068 
08:30	25.6	25.6	25.6	75	18.8	1	6	292	0.00	30.080 
08:35	25.7	25.7	25.7	75	18.9	1	7	292	0.00	30.080 
08:40	25.6	25.6	25.6	75	18.8	2	7	292	0.00	30.080 
08:45	25.4	25.4	25.4	74	18.3	3	11	292	0.00	30.089 
08:50	25.3	25.3	25.3	75	18.5	3	7	292	0.00	30.089 
08:55	25.3	25.3	25.3	75	18.5	1	6	315	0.00	30.089 
09:00	25.6	25.6	25.6	75	18.8	2	7	292	0.00	30.098 
09:05	25.4	25.4	25.4	75	18.6	2	6	292	0.00	30.098 
09:10	25.6	25.6	25.6	73	18.2	2	7	315	0.00	30.098 
09:15	25.7	25.7	25.7	73	18.3	2	5	292	0.00	30.111 
09:20	25.8	25.8	25.8	72	18.0	1	4	315	0.00	30.111 
09:25	26.0	26.0	26.0	72	18.2	1	4	292	0.00	30.111 
09:30	26.0	26.0	26.0	71	17.9	1	4	315	0.00	30.121 
09:35	26.0	26.0	26.0	71	17.9	2	8	270	0.00	30.121 
09:40	26.3	26.3	26.3	71	18.2	1	5	292	0.00	30.121 
09:45	26.3	26.3	26.3	70	17.9	2	8	292	0.00	30.126 
09:50	26.4	26.4	26.4	69	17.6	2	7	0	0.00	30.126 
09:55	26.7	26.7	26.7	69	17.9	2	7	292	0.00	30.126 
10:00	26.9	26.9	26.9	68	17.8	2	5	292	0.00	30.136 
10:05	27.2	27.2	27.2	69	18.4	1	5	315	0.00	30.136 
10:10	27.2	27.2	27.2	68	18.1	2	6	292	0.00	30.136 
10:15	26.7	26.7	26.7	68	17.6	2	7	315	0.00	30.145 
10:20	26.7	26.7	26.7	68	17.6	3	9	292	0.00	30.145 
10:25	26.9	26.9	26.9	69	18.1	1	6	292	0.00	30.145 
10:30	27.3	27.3	27.3	67	17.8	2	5	315	0.00	30.153 
10:35	27.6	27.6	27.6	67	18.1	2	8	0	0.00	30.153 
10:40	28.2	28.2	28.2	66	18.3	2	10	292	0.00	30.153 
10:45	28.7	28.7	28.7	65	18.4	3	11	315	0.00	30.157 
10:50	28.8	28.8	28.8	64	18.2	3	7	292	0.00	30.157 
10:55	29.3	29.3	29.3	64	18.7	3	9	315	0.00	30.157 
11:00	29.5	29.5	29.5	65	19.2	2	4	292	0.00	30.164 
11:05	29.3	29.3	29.3	64	18.7	3	10	292	0.00	30.164 
11:10	29.1	29.1	29.1	65	18.8	2	6	292	0.00	30.164 
11:15	29.7	29.7	29.7	65	19.4	2	7	292	0.00	30.169 
11:20	30.1	30.1	30.1	64	19.4	2	7	292	0.00	30.169 
11:25	30.4	30.4	30.4	64	19.7	3	10	292	0.00	30.169 
11:30	30.4	30.4	30.4	64	19.7	2	6	315	0.00	30.175 
11:35	30.7	30.7	30.7	61	18.9	3	13	292	0.00	30.175 
11:40	30.7	26.6	30.7	58	17.7	4	11	292	0.00	30.175 
11:45	31.2	31.2	31.2	63	20.1	1	6	292	0.00	30.179 
11:50	31.8	31.8	31.8	60	19.5	2	6	338	0.00	30.179 
11:55	31.5	31.5	31.5	58	18.4	3	8	292	0.00	30.179 
12:00	31.8	31.8	31.8	60	19.5	2	5	292	0.00	30.181 
12:05	31.6	31.6	31.6	58	18.5	2	9	315	0.00	30.181 
12:10	32.2	32.2	32.2	58	19.1	2	7	315	0.00	30.181 
12:15	32.1	32.1	32.1	56	18.2	3	9	292	0.00	30.184 
12:20	32.1	28.2	32.1	54	17.4	4	11	292	0.00	30.184 
12:25	32.1	32.1	32.1	55	17.8	3	10	292	0.00	30.184 
12:30	32.5	32.5	32.5	55	18.2	2	7	338	0.00	30.189 
12:35	32.5	32.5	32.5	55	18.2	2	7	292	0.00	30.189 
12:40	32.4	32.4	32.4	53	17.2	2	6	270	0.00	30.189 
12:45	32.2	32.2	32.2	54	17.4	3	7	315	0.00	30.193 
12:50	31.9	31.9	31.9	54	17.2	3	9	292	0.00	30.193 
12:55	32.2	32.2	32.2	54	17.4	3	9	292	0.00	30.193 
13:00	32.2	28.3	32.2	54	17.4	4	10	292	0.00	30.198 
13:05	32.5	28.7	32.5	52	16.9	4	10	315	0.00	30.198 
13:10	33.1	33.1	33.1	51	17.0	3	10	292	0.00	30.198 
13:15	33.4	33.4	33.4	52	17.7	3	8	315	0.00	30.199 
13:20	33.1	33.1	33.1	51	17.0	3	11	315	0.00	30.199 
13:25	32.9	32.9	32.9	52	17.2	2	6	292	0.00	30.199 
13:30	33.5	33.5	33.5	52	17.8	2	5	292	0.00	30.197 
13:35	33.8	33.8	33.8	52	18.1	3	10	292	0.00	30.197 
13:40	34.0	34.0	34.0	52	18.2	2	6	0	0.00	30.197 
13:45	34.4	34.4	34.4	52	18.6	2	6	292	0.00	30.198 
13:50	33.8	33.8	33.8	49	16.7	3	11	315	0.00	30.198 
13:55	33.1	33.1	33.1	50	16.5	2	7	292	0.00	30.198 
14:00	32.8	32.8	32.8	49	15.8	2	7	315	0.00	30.200 
14:05	33.1	33.1	33.1	48	15.6	2	6	292	0.00	30.200 
14:10	33.4	33.4	33.4	51	17.2	1	5	315	0.00	30.200 
14:15	33.8	33.8	33.8	47	15.7	2	4	292	0.00	30.200 
14:20	33.7	33.7	33.7	45	14.6	3	7	315	0.00	30.200 
14:25	34.1	34.1	34.1	44	14.5	3	6	315	0.00	30.200 
14:30	35.0	35.0	35.0	45	15.8	2	6	315	0.00	30.199 
14:35	34.7	34.7	34.7	46	16.1	2	6	338	0.00	30.199 
14:40	35.0	35.0	35.0	49	17.8	2	5	0	0.00	30.199 
14:45	35.3	35.3	35.3	45	16.1	3	7	315	0.00	30.199 
14:50	34.7	34.7	34.7	42	14.0	1	7	0	0.00	30.199 
14:55	34.4	34.4	34.4	42	13.7	1	5	315	0.00	30.199 
15:00	35.2	35.2	35.2	41	13.9	3	10	315	0.00	30.198 
15:05	36.0	36.0	36.0	42	15.2	1	6	315	0.00	30.198 
15:10	35.8	35.8	35.8	40	13.9	2	5	292	0.00	30.198 
15:15	34.7	34.7	34.7	39	12.3	1	4	292	0.00	30.198 
15:20	34.4	34.4	34.4	42	13.7	1	4	292	0.00	30.198 
15:25	34.4	34.4	34.4	43	14.2	2	10	292	0.00	30.198 
15:30	34.7	34.7	34.7	47	16.6	1	4	315	0.00	30.195 
15:35	35.6	35.6	35.6	43	15.3	2	9	315	0.00	30.195 
15:40	35.8	35.8	35.8	39	13.3	3	6	315	0.00	30.195 
15:45	36.5	36.5	36.5	39	13.9	2	5	292	0.00	30.194 
15:50	36.6	36.6	36.6	39	14.0	2	4	315	0.00	30.194 
15:55	36.9	36.9	36.9	44	17.0	1	5	292	0.00	30.194 
16:00	37.0	37.0	37.0	44	17.1	2	5	270	0.00	30.193 
16:05	37.0	37.0	37.0	43	16.6	1	4	315	0.00	30.193 
16:10	36.9	36.9	36.9	41	15.4	1	5	270	0.00	30.193 
16:15	36.2	36.2	36.2	41	14.8	3	10	315	0.00	30.198 
16:20	35.3	35.3	35.3	40	13.4	2	6	292	0.00	30.198 
16:25	35.0	35.0	35.0	39	12.6	1	5	315	0.00	30.198 
16:30	35.5	35.5	35.5	38	12.4	2	6	315	0.00	30.192 
16:35	36.2	36.2	36.2	39	13.7	1	5	22	0.00	30.192 
16:40	36.6	36.6	36.6	42	15.7	1	4	315	0.00	30.192 
16:45	36.3	36.3	36.3	40	14.3	1	5	90	0.00	30.197 
16:50	35.6	35.6	35.6	42	14.8	1	6	0	0.00	30.197 
16:55	35.2	35.2	35.2	40	13.3	1	5	292	0.00	30.197 
17:00	35.0	35.0	35.0	41	13.7	1	3	292	0.00	30.201 
17:05	35.0	35.0	35.0	41	13.7	1	5	270	0.00	30.201 
17:10	35.0	35.0	35.0	43	14.8	1	6	292	0.00	30.201 
17:15	35.0	35.0	35.0	40	13.1	1	4	292	0.00	30.201 
17:20	35.2	35.2	35.2	40	13.3	0	3	338	0.00	30.201 
17:25	35.6	35.6	35.6	40	13.7	1	4	338	0.00	30.201 
17:30	35.9	35.9	35.9	43	15.6	0	3	292	0.00	30.203 
17:35	35.6	35.6	35.6	42	14.8	1	4	315	0.00	30.203 
17:40	35.3	35.3	35.3	43	15.1	0	3	135	0.00	30.203 
17:45	35.3	35.3	35.3	42	14.5	1	4	248	0.00	30.210 
17:50	35.3	35.3	35.3	43	15.1	0	2	135	0.00	30.210 
17:55	35.8	35.8	35.8	45	16.6	0	2	90	0.00	30.210 
18:00	36.2	36.2	36.2	40	14.2	0	3	315	0.00	30.212 
18:05	36.3	36.3	36.3	38	13.2	1	3	315	0.00	30.212 
18:10	36.8	36.8	36.8	41	15.3	1	5	315	0.00	30.212 
18:15	36.8	36.8	36.8	38	13.6	1	4	315	0.00	30.215 
18:20	36.8	36.8	36.8	40	14.8	1	5	315	0.00	30.215 
18:25	36.6	36.6	36.6	39	14.0	1	4	315	0.00	30.215 
18:30	36.2	36.2	36.2	38	13.1	1	4	292	0.00	30.219 
18:35	36.3	36.3	36.3	39	13.7	0	3	292	0.00	30.219 
18:40	36.2	36.2	36.2	40	14.2	1	5	338	0.00	30.219 
18:45	35.8	35.8	35.8	40	13.9	1	4	0	0.00	30.223 
18:50	35.5	35.5	35.5	41	14.2	0	2	0	0.00	30.223 
18:55	35.2	35.2	35.2	41	13.9	0	4	45	0.00	30.223 
19:00	34.9	34.9	34.9	42	14.2	0	1	45	0.00	30.227 
19:05	34.9	34.9	34.9	41	13.6	0	0	---	0.00	30.227 
19:10	34.9	34.9	34.9	41	13.6	0	1	45	0.00	30.227 
19:15	34.7	34.7	34.7	42	14.0	0	1	45	0.00	30.224 
19:20	34.7	34.7	34.7	43	14.5	0	1	45	0.00	30.224 
19:25	34.6	34.6	34.6	42	13.9	0	1	45	0.00	30.224 
19:30	34.4	34.4	34.4	40	12.6	0	2	45	0.00	30.223 
19:35	34.1	34.1	34.1	41	12.9	0	1	45	0.00	30.223 
19:40	34.0	34.0	34.0	41	12.8	0	0	---	0.00	30.223 
19:45	33.8	33.8	33.8	41	12.6	0	1	45	0.00	30.227 
19:50	33.7	33.7	33.7	41	12.5	0	0	---	0.00	30.227 
19:55	33.7	33.7	33.7	42	13.1	0	1	45	0.00	30.227 
20:00	33.5	33.5	33.5	43	13.4	0	0	---	0.00	30.229 
20:05	33.4	33.4	33.4	44	13.9	0	0	---	0.00	30.229 
20:10	33.2	33.2	33.2	44	13.7	0	0	---	0.00	30.229 
20:15	33.1	33.1	33.1	45	14.1	0	0	---	0.00	30.235 
20:20	33.1	33.1	33.1	46	14.6	0	0	---	0.00	30.235 
20:25	33.1	33.1	33.1	46	14.6	0	2	45	0.00	30.235 
20:30	32.9	32.9	32.9	46	14.4	0	1	45	0.00	30.236 
20:35	32.9	32.9	32.9	46	14.4	0	1	45	0.00	30.236 
20:40	32.8	32.8	32.8	47	14.8	0	2	45	0.00	30.236 
20:45	32.7	32.7	32.7	47	14.7	0	1	45	0.00	30.236 
20:50	32.5	32.5	32.5	48	15.0	0	1	45	0.00	30.236 
20:55	32.4	32.4	32.4	49	15.4	0	1	45	0.00	30.236 
21:00	32.2	32.2	32.2	50	15.7	0	0	---	0.00	30.239 
21:05	31.9	31.9	31.9	50	15.4	0	1	45	0.00	30.239 
21:10	31.8	31.8	31.8	51	15.8	0	0	---	0.00	30.239 
21:15	31.5	31.5	31.5	52	15.9	0	0	---	0.00	30.249 
21:20	31.2	31.2	31.2	52	15.6	0	0	---	0.00	30.249 
21:25	30.9	30.9	30.9	53	15.8	0	0	---	0.00	30.249 
21:30	30.6	30.6	30.6	53	15.5	0	0	---	0.00	30.251 
21:35	30.4	30.4	30.4	54	15.8	0	0	---	0.00	30.251 
21:40	30.1	30.1	30.1	54	15.5	0	0	---	0.00	30.251 
21:45	30.0	30.0	30.0	56	16.2	0	0	---	0.00	30.255 
21:50	29.8	29.8	29.8	58	16.8	0	0	---	0.00	30.255 
21:55	29.7	29.7	29.7	58	16.8	0	0	---	0.00	30.255 
22:00	29.5	29.5	29.5	59	17.0	0	0	---	0.00	30.258 
22:05	29.4	29.4	29.4	61	17.6	0	0	---	0.00	30.258 
22:10	29.4	29.4	29.4	61	17.6	0	0	---	0.00	30.258 
22:15	29.3	29.3	29.3	61	17.5	0	0	---	0.00	30.253 
22:20	29.4	29.4	29.4	61	17.6	0	0	---	0.00	30.253 
22:25	29.4	29.4	29.4	61	17.6	0	1	45	0.00	30.253 
22:30	29.4	29.4	29.4	61	17.6	0	1	45	0.00	30.256 
22:35	29.5	29.5	29.5	60	17.3	0	1	45	0.00	30.256 
22:40	29.5	29.5	29.5	61	17.7	0	1	45	0.00	30.256 
22:45	29.5	29.5	29.5	61	17.7	0	1	45	0.00	30.254 
22:50	29.5	29.5	29.5	61	17.7	0	0	---	0.00	30.254 
22:55	29.4	29.4	29.4	62	18.0	0	0	---	0.00	30.254 
23:00	29.4	29.4	29.4	62	18.0	0	0	---	0.00	30.255 
23:05	29.3	29.3	29.3	62	17.9	0	0	---	0.00	30.255 
23:10	29.1	29.1	29.1	62	17.7	0	0	---	0.00	30.255 
23:15	29.0	29.0	29.0	63	18.0	0	0	---	0.00	30.254 
23:20	28.8	28.8	28.8	63	17.8	0	0	---	0.00	30.254 
23:25	28.7	28.7	28.7	65	18.4	0	0	---	0.00	30.254 
23:30	28.5	28.5	28.5	66	18.6	0	0	---	0.00	30.247 
23:35	28.7	28.7	28.7	66	18.8	0	1	45	0.00	30.247 
23:40	28.8	28.8	28.8	66	18.9	0	1	45	0.00	30.247 
23:45	29.1	29.1	29.1	66	19.2	0	2	45	0.00	30.246 
23:50	29.3	29.3	29.3	66	19.4	0	1	45	0.00	30.246 
23:55	29.5	29.5	29.5	67	19.9	1	3	45	0.00	30.246 

CoCoRaHS
IN-AL-39
A2 Web Hosting
Creative Commons License
GoDaddy
search engine by freefind advanced

loaded 2018-11-20 14:21:12 • last modified 2010-11-18 10:43:29
Privacy PolicyDisclaimer
• wx.awcolley.com is powered by PmWiki v.2002016 •
• all content (unless otherwise noted) © 2018 A W Colley